createdAt,value
2022-08-09T00:01:04.910Z,21.58
2022-08-09T00:04:05.983Z,21.65
2022-08-09T00:06:35.236Z,21.64
2022-08-09T00:09:07.558Z,21.62
2022-08-09T00:12:02.740Z,21.61
2022-08-09T00:14:38.474Z,21.59
2022-08-09T00:18:04.347Z,21.58
2022-08-09T00:20:04.748Z,21.59
2022-08-09T00:22:37.256Z,21.59
2022-08-09T00:25:12.951Z,21.59
2022-08-09T00:27:47.978Z,21.58
2022-08-09T00:30:26.058Z,21.58
2022-08-09T00:32:58.978Z,21.57
2022-08-09T00:35:43.207Z,21.56
2022-08-09T00:38:16.342Z,21.55
2022-08-09T00:40:53.861Z,21.56
2022-08-09T00:44:16.635Z,21.55
2022-08-09T00:46:55.364Z,21.54
2022-08-09T00:49:12.697Z,21.53
2022-08-09T00:51:55.853Z,21.53
2022-08-09T00:54:35.145Z,21.54
2022-08-09T00:57:10.973Z,21.52
2022-08-09T00:59:46.299Z,21.50
2022-08-09T01:02:22.723Z,21.34
2022-08-09T01:05:02.648Z,21.46
2022-08-09T01:08:01.009Z,21.44
2022-08-09T01:10:39.305Z,21.44
2022-08-09T01:13:22.144Z,21.42
2022-08-09T01:15:57.833Z,21.41
2022-08-09T01:18:33.635Z,21.42
2022-08-09T01:21:18.541Z,21.41
2022-08-09T01:24:05.696Z,21.40
2022-08-09T01:26:59.227Z,21.39
2022-08-09T01:29:41.221Z,21.39
2022-08-09T01:32:34.088Z,21.40
2022-08-09T01:35:28.620Z,21.38
2022-08-09T01:38:10.502Z,21.36
2022-08-09T01:40:52.506Z,21.36
2022-08-09T01:43:26.047Z,21.36
2022-08-09T01:45:59.208Z,21.34
2022-08-09T01:48:32.718Z,21.34
2022-08-09T01:51:06.539Z,21.26
2022-08-09T01:53:43.706Z,21.30
2022-08-09T01:56:22.552Z,21.29
2022-08-09T01:58:56.563Z,21.28
2022-08-09T02:01:59.622Z,21.27
2022-08-09T02:04:26.174Z,21.23
2022-08-09T02:07:18.370Z,21.25
2022-08-09T02:10:05.489Z,21.23
2022-08-09T02:12:39.464Z,21.22
2022-08-09T02:15:17.141Z,21.20
2022-08-09T02:18:00.425Z,21.10
2022-08-09T02:20:43.270Z,21.19
2022-08-09T02:23:23.156Z,21.20
2022-08-09T02:25:57.744Z,21.18
2022-08-09T02:28:35.382Z,21.19
2022-08-09T02:31:09.907Z,21.16
2022-08-09T02:34:07.212Z,21.14
2022-08-09T02:36:42.186Z,21.13
2022-08-09T02:39:20.245Z,21.13
2022-08-09T02:42:07.827Z,21.12
2022-08-09T02:44:42.803Z,21.12
2022-08-09T02:47:17.914Z,21.04
2022-08-09T02:50:02.043Z,21.11
2022-08-09T02:52:39.930Z,21.08
2022-08-09T02:55:20.072Z,21.05
2022-08-09T02:58:00.476Z,21.11
2022-08-09T03:00:58.570Z,21.12
2022-08-09T03:04:13.179Z,21.11
2022-08-09T03:06:27.467Z,21.08
2022-08-09T03:09:01.583Z,21.11
2022-08-09T03:12:11.045Z,21.08
2022-08-09T03:14:32.026Z,21.07
2022-08-09T03:17:05.508Z,21.08
2022-08-09T03:19:58.201Z,21.09
2022-08-09T03:22:41.989Z,21.07
2022-08-09T03:25:26.087Z,21.04
2022-08-09T03:28:01.049Z,21.05
2022-08-09T03:30:36.808Z,21.06
2022-08-09T03:33:17.835Z,21.06
2022-08-09T03:36:12.760Z,21.07
2022-08-09T03:38:46.636Z,21.06
2022-08-09T03:41:18.980Z,21.07
2022-08-09T03:44:07.587Z,21.09
2022-08-09T03:46:41.332Z,21.09
2022-08-09T03:49:16.679Z,21.08
2022-08-09T03:52:00.090Z,21.08
2022-08-09T03:54:38.532Z,21.08
2022-08-09T03:57:20.292Z,21.09
2022-08-09T04:00:00.521Z,21.08
2022-08-09T04:02:34.776Z,21.09
2022-08-09T04:05:17.094Z,21.08
2022-08-09T04:08:00.576Z,20.99
2022-08-09T04:10:33.074Z,21.07
2022-08-09T04:13:11.583Z,21.06
2022-08-09T04:16:20.659Z,21.07
2022-08-09T04:18:38.187Z,21.06
2022-08-09T04:21:11.586Z,21.00
2022-08-09T04:23:54.381Z,21.11
2022-08-09T04:26:35.235Z,21.13
2022-08-09T04:29:15.488Z,21.07
2022-08-09T04:31:48.331Z,21.15
2022-08-09T04:34:30.785Z,21.16
2022-08-09T04:37:07.212Z,21.16
2022-08-09T04:39:41.006Z,21.20
2022-08-09T04:42:15.910Z,21.21
2022-08-09T04:44:50.839Z,21.14
2022-08-09T04:47:25.840Z,21.24
2022-08-09T04:50:05.886Z,21.24
2022-08-09T04:52:42.264Z,21.26
2022-08-09T04:55:15.468Z,21.28
2022-08-09T04:57:59.220Z,21.30
2022-08-09T05:00:36.044Z,21.32
2022-08-09T05:03:30.665Z,21.34
2022-08-09T05:06:04.584Z,21.37
2022-08-09T05:08:44.001Z,21.40
2022-08-09T05:11:20.065Z,21.42
2022-08-09T05:13:54.941Z,21.43
2022-08-09T05:16:31.507Z,21.38
2022-08-09T05:19:04.208Z,21.48
2022-08-09T05:21:47.241Z,21.51
2022-08-09T05:24:28.114Z,21.53
2022-08-09T05:27:00.288Z,21.55
2022-08-09T05:29:35.525Z,21.57
2022-08-09T05:32:08.630Z,21.60
2022-08-09T05:34:43.005Z,21.62
2022-08-09T05:37:18.749Z,21.65
2022-08-09T05:39:51.109Z,21.67
2022-08-09T05:42:28.685Z,21.70
2022-08-09T05:45:02.235Z,21.72
2022-08-09T05:47:35.210Z,21.75
2022-08-09T05:51:30.270Z,21.83
2022-08-09T05:53:57.242Z,21.80
2022-08-09T05:56:29.113Z,21.83
2022-08-09T05:59:01.943Z,21.83
2022-08-09T06:01:42.260Z,21.87
2022-08-09T06:04:15.550Z,21.89
2022-08-09T06:07:21.725Z,21.84
2022-08-09T06:10:04.349Z,21.93
2022-08-09T06:13:02.826Z,21.97
2022-08-09T06:15:37.625Z,21.99
2022-08-09T06:18:10.261Z,22.01
2022-08-09T06:20:43.587Z,22.03
2022-08-09T06:23:58.951Z,22.06
2022-08-09T06:26:28.192Z,22.09
2022-08-09T06:29:05.448Z,22.12
2022-08-09T06:31:39.709Z,22.15
2022-08-09T06:34:30.734Z,22.17
2022-08-09T06:37:03.067Z,22.18
2022-08-09T06:40:00.645Z,22.18
2022-08-09T06:43:03.141Z,22.20
2022-08-09T06:46:07.662Z,22.24
2022-08-09T06:49:00.227Z,22.22
2022-08-09T06:51:45.964Z,22.26
2022-08-09T06:54:31.544Z,22.29
2022-08-09T06:57:13.553Z,22.31
2022-08-09T07:00:56.314Z,22.25
2022-08-09T07:02:54.156Z,22.32
2022-08-09T07:05:58.214Z,22.35
2022-08-09T07:08:41.330Z,22.36
2022-08-09T07:11:25.812Z,22.35
2022-08-09T07:14:26.777Z,22.35
2022-08-09T07:17:08.962Z,22.39
2022-08-09T07:19:50.619Z,22.39
2022-08-09T07:22:35.187Z,22.44
2022-08-09T07:25:15.522Z,22.44
2022-08-09T07:27:58.606Z,22.47
2022-08-09T07:30:44.124Z,22.53
2022-08-09T07:33:19.385Z,22.56
2022-08-09T07:35:53.833Z,22.60
2022-08-09T07:38:31.098Z,22.45
2022-08-09T07:41:11.786Z,22.66
2022-08-09T07:43:49.842Z,22.71
2022-08-09T07:46:29.631Z,22.74
2022-08-09T07:49:02.537Z,22.78
2022-08-09T07:52:06.333Z,22.82
2022-08-09T07:54:31.212Z,22.87
2022-08-09T07:57:04.397Z,22.93
2022-08-09T07:59:50.984Z,22.98
2022-08-09T08:02:47.914Z,23.04
2022-08-09T08:05:20.240Z,23.02
2022-08-09T08:08:44.080Z,23.15
2022-08-09T08:11:03.145Z,23.26
2022-08-09T08:13:40.056Z,23.30
2022-08-09T08:16:31.325Z,23.39
2022-08-09T08:19:04.440Z,23.45
2022-08-09T08:21:39.567Z,23.55
2022-08-09T08:24:16.568Z,23.63
2022-08-09T08:26:55.692Z,23.71
2022-08-09T08:29:39.507Z,23.77
2022-08-09T08:32:28.754Z,23.86
2022-08-09T08:35:02.804Z,23.93
2022-08-09T08:37:41.453Z,24.00
2022-08-09T08:40:27.054Z,24.07
2022-08-09T08:43:02.423Z,24.15
2022-08-09T08:45:38.046Z,24.21
2022-08-09T08:48:19.323Z,24.29
2022-08-09T08:50:52.183Z,24.37
2022-08-09T08:53:32.194Z,24.39
2022-08-09T08:56:13.665Z,24.47
2022-08-09T08:58:57.261Z,24.57
2022-08-09T09:01:35.393Z,24.63
2022-08-09T09:04:17.659Z,24.74
2022-08-09T09:07:03.125Z,24.81
2022-08-09T09:09:58.542Z,24.87
2022-08-09T09:12:35.527Z,24.95
2022-08-09T09:15:09.496Z,25.06
2022-08-09T09:17:49.111Z,25.10
2022-08-09T09:20:25.879Z,25.16
2022-08-09T09:23:01.874Z,25.21
2022-08-09T09:26:01.265Z,25.28
2022-08-09T09:29:01.959Z,25.33
2022-08-09T09:32:03.828Z,25.42
2022-08-09T09:34:18.791Z,25.48
2022-08-09T09:36:54.077Z,25.54
2022-08-09T09:39:54.583Z,25.44
2022-08-09T09:42:27.832Z,25.62
2022-08-09T09:45:03.183Z,25.63
2022-08-09T09:47:47.850Z,25.63
2022-08-09T09:50:49.584Z,25.62
2022-08-09T09:53:57.811Z,25.62
2022-08-09T09:56:19.874Z,25.64
2022-08-09T09:59:04.861Z,25.64
2022-08-09T10:01:40.736Z,25.62
2022-08-09T10:04:22.910Z,25.51
2022-08-09T10:07:10.095Z,25.59
2022-08-09T10:09:54.729Z,25.60
2022-08-09T10:12:28.546Z,25.71
2022-08-09T10:15:17.565Z,25.97
2022-08-09T10:18:13.811Z,26.27
2022-08-09T10:20:46.665Z,26.41
2022-08-09T10:23:22.711Z,26.60
2022-08-09T10:26:06.378Z,26.80
2022-08-09T10:28:48.869Z,26.97
2022-08-09T10:34:33.726Z,27.35
2022-08-09T10:37:09.861Z,27.49
2022-08-09T10:39:49.273Z,27.49
2022-08-09T10:42:27.012Z,27.45
2022-08-09T10:45:01.892Z,27.59
2022-08-09T10:48:19.562Z,27.79
2022-08-09T10:51:14.909Z,27.79
2022-08-09T10:53:58.378Z,27.71
2022-08-09T10:56:35.942Z,27.69
2022-08-09T10:59:55.682Z,27.86
2022-08-09T11:03:14.939Z,28.10
2022-08-09T11:05:33.275Z,28.23
2022-08-09T11:08:35.738Z,28.53
2022-08-09T11:11:16.303Z,28.77
2022-08-09T11:14:08.972Z,28.75
2022-08-09T11:16:48.557Z,28.63
2022-08-09T11:20:11.088Z,28.55
2022-08-09T11:23:10.194Z,28.27
2022-08-09T11:25:48.780Z,28.02
2022-08-09T11:28:55.750Z,27.83
2022-08-09T11:31:57.021Z,27.66
2022-08-09T11:34:43.825Z,27.52
2022-08-09T11:37:31.320Z,27.37
2022-08-09T11:40:17.833Z,27.29
2022-08-09T11:42:51.836Z,27.27
2022-08-09T11:45:37.738Z,27.24
2022-08-09T11:48:27.011Z,27.17
2022-08-09T11:52:48.858Z,27.09
2022-08-09T11:54:21.586Z,27.10
2022-08-09T11:57:47.510Z,27.05
2022-08-09T12:00:31.787Z,26.94
2022-08-09T12:03:31.867Z,26.91
2022-08-09T12:05:58.788Z,26.88
2022-08-09T12:08:31.863Z,26.84
2022-08-09T12:11:04.869Z,26.79
2022-08-09T12:14:10.712Z,26.76
2022-08-09T12:16:41.450Z,26.72
2022-08-09T12:19:15.456Z,26.72
2022-08-09T12:21:51.778Z,26.68
2022-08-09T12:24:25.800Z,26.74
2022-08-09T12:29:09.805Z,26.78
2022-08-09T12:30:35.243Z,26.90
2022-08-09T12:33:02.094Z,27.25
2022-08-09T12:35:40.733Z,27.38
2022-08-09T12:38:37.313Z,27.52
2022-08-09T12:41:10.533Z,27.90
2022-08-09T12:44:06.042Z,28.09
2022-08-09T12:46:37.759Z,28.31
2022-08-09T12:49:10.623Z,28.25
2022-08-09T12:52:02.541Z,28.41
2022-08-09T12:55:03.321Z,28.68
2022-08-09T12:57:47.487Z,28.86
2022-08-09T13:00:25.303Z,28.99
2022-08-09T13:02:59.485Z,28.97
2022-08-09T13:05:52.613Z,29.18
2022-08-09T13:08:40.395Z,29.37
2022-08-09T13:11:23.273Z,29.47
2022-08-09T13:14:36.824Z,29.59
2022-08-09T13:16:53.614Z,29.64
2022-08-09T13:20:06.556Z,29.71
2022-08-09T13:22:37.419Z,29.75
2022-08-09T13:25:15.966Z,29.91
2022-08-09T13:27:55.961Z,30.01
2022-08-09T13:30:51.391Z,29.86
2022-08-09T13:33:53.176Z,29.57
2022-08-09T13:36:24.500Z,29.71
2022-08-09T13:41:46.172Z,30.06
2022-08-09T13:42:11.837Z,30.09
2022-08-09T13:44:48.679Z,29.78
2022-08-09T13:47:33.207Z,29.66
2022-08-09T13:50:30.549Z,29.70
2022-08-09T13:53:03.790Z,29.85
2022-08-09T13:55:36.966Z,29.82
2022-08-09T13:58:11.673Z,29.61
2022-08-09T14:00:50.567Z,29.32
2022-08-09T14:04:02.689Z,29.13
2022-08-09T14:06:26.676Z,29.07
2022-08-09T14:09:01.775Z,29.04
2022-08-09T14:11:41.353Z,28.91
2022-08-09T14:14:26.108Z,28.94
2022-08-09T14:17:02.093Z,28.74
2022-08-09T14:19:34.661Z,28.59
2022-08-09T14:22:07.997Z,28.46
2022-08-09T14:24:53.480Z,28.32
2022-08-09T14:27:26.742Z,28.20
2022-08-09T14:30:34.645Z,28.13
2022-08-09T14:32:51.403Z,28.14
2022-08-09T14:35:24.063Z,28.06
2022-08-09T14:38:10.969Z,28.22
2022-08-09T14:41:02.372Z,28.52
2022-08-09T14:43:47.268Z,28.56
2022-08-09T14:46:57.427Z,28.57
2022-08-09T14:49:13.984Z,28.77
2022-08-09T14:51:48.769Z,28.94
2022-08-09T14:54:22.517Z,28.94
2022-08-09T14:57:00.264Z,29.19
2022-08-09T14:59:33.096Z,28.95
2022-08-09T15:02:12.459Z,28.66
2022-08-09T15:04:45.042Z,28.62
2022-08-09T15:07:20.202Z,28.50
2022-08-09T15:10:07.858Z,28.36
2022-08-09T15:12:44.799Z,28.31
2022-08-09T15:15:17.645Z,28.26
2022-08-09T15:17:52.896Z,28.15
2022-08-09T15:22:00.966Z,28.07
2022-08-09T15:24:02.369Z,28.03
2022-08-09T15:26:18.922Z,28.18
2022-08-09T15:29:05.233Z,28.28
2022-08-09T15:31:41.530Z,28.38
2022-08-09T15:34:32.096Z,28.42
2022-08-09T15:37:38.018Z,28.38
2022-08-09T15:40:22.166Z,28.17
2022-08-09T15:42:57.428Z,28.03
2022-08-09T15:45:30.168Z,27.98
2022-08-09T15:48:07.866Z,27.87
2022-08-09T15:50:55.546Z,27.76
2022-08-09T15:54:05.444Z,27.67
2022-08-09T15:56:21.368Z,27.63
2022-08-09T15:59:02.446Z,27.63
2022-08-09T16:01:35.254Z,27.65
2022-08-09T16:04:13.537Z,27.62
2022-08-09T16:50:31.986Z,27.44
2022-08-09T16:52:40.836Z,27.35
2022-08-09T16:55:18.150Z,27.29
2022-08-09T16:58:08.094Z,27.26
2022-08-09T17:00:42.839Z,27.18
2022-08-09T17:03:21.562Z,27.15
2022-08-09T17:06:08.548Z,27.08
2022-08-09T17:08:58.915Z,26.82
2022-08-09T17:11:41.751Z,26.94
2022-08-09T17:14:26.259Z,26.83
2022-08-09T17:17:03.878Z,26.82
2022-08-09T17:20:29.757Z,26.74
2022-08-09T17:22:52.173Z,26.67
2022-08-09T17:25:25.760Z,26.63
2022-08-09T17:28:08.463Z,26.52
2022-08-09T17:30:47.650Z,26.48
2022-08-09T17:33:23.017Z,26.33
2022-08-09T17:35:55.413Z,26.37
2022-08-09T17:38:30.992Z,26.35
2022-08-09T17:41:06.245Z,26.29
2022-08-09T17:43:40.003Z,26.23
2022-08-09T17:46:12.595Z,26.18
2022-08-09T17:48:51.924Z,26.13
2022-08-09T17:51:25.165Z,26.04
2022-08-09T17:54:03.908Z,26.11
2022-08-09T17:56:38.102Z,26.09
2022-08-09T17:59:16.956Z,26.05
2022-08-09T18:02:07.433Z,25.99
2022-08-09T18:04:43.472Z,25.93
2022-08-09T18:07:23.254Z,25.91
2022-08-09T18:10:03.964Z,25.87
2022-08-09T18:12:40.702Z,25.72
2022-08-09T18:16:05.592Z,25.66
2022-08-09T18:18:25.351Z,25.70
2022-08-09T18:21:18.843Z,25.64
2022-08-09T18:24:11.324Z,25.60
2022-08-09T18:26:46.665Z,25.53
2022-08-09T18:30:40.181Z,25.49
2022-08-09T18:32:13.879Z,25.26
2022-08-09T18:34:51.490Z,25.41
2022-08-09T18:37:48.993Z,25.41
2022-08-09T18:40:20.121Z,25.33
2022-08-09T18:42:59.253Z,25.26
2022-08-09T18:46:47.209Z,25.20
2022-08-09T18:48:30.269Z,25.07
2022-08-09T18:51:06.052Z,25.09
2022-08-09T18:54:00.530Z,25.03
2022-08-09T18:56:35.818Z,24.95
2022-08-09T18:59:08.541Z,24.91
2022-08-09T19:01:45.865Z,24.84
2022-08-09T19:04:34.671Z,24.68
2022-08-09T19:07:08.530Z,24.74
2022-08-09T19:10:13.778Z,24.63
2022-08-09T19:12:36.967Z,24.50
2022-08-09T19:15:12.440Z,24.49
2022-08-09T19:17:56.115Z,24.43
2022-08-09T19:20:34.390Z,24.38
2022-08-09T19:23:16.504Z,24.32
2022-08-09T19:26:02.127Z,24.27
2022-08-09T19:28:38.286Z,24.13
2022-08-09T19:31:15.062Z,24.16
2022-08-09T19:33:49.793Z,24.11
2022-08-09T19:36:23.443Z,24.04
2022-08-09T19:39:05.582Z,23.97
2022-08-09T19:41:42.271Z,23.91
2022-08-09T19:44:17.687Z,23.84
2022-08-09T19:46:53.239Z,23.77
2022-08-09T19:50:07.564Z,23.70
2022-08-09T19:52:20.286Z,23.62
2022-08-09T19:54:52.868Z,23.56
2022-08-09T19:57:26.057Z,23.52
2022-08-09T20:00:06.608Z,23.46
2022-08-09T20:04:07.140Z,23.41
2022-08-09T20:05:46.401Z,23.36
2022-08-09T20:08:25.069Z,23.32
2022-08-09T20:11:06.304Z,23.27
2022-08-09T20:13:39.151Z,23.23
2022-08-09T20:16:32.901Z,23.19
2022-08-09T20:19:47.423Z,23.15
2022-08-09T20:22:00.123Z,23.10
2022-08-09T20:24:34.140Z,23.07
2022-08-09T20:27:08.370Z,23.00
2022-08-09T20:29:42.836Z,22.97
2022-08-09T20:32:29.245Z,22.84
2022-08-09T20:35:05.763Z,22.90
2022-08-09T20:38:21.566Z,22.86
2022-08-09T20:40:34.130Z,22.82
2022-08-09T20:43:18.383Z,22.79
2022-08-09T20:46:00.238Z,22.76
2022-08-09T20:48:50.760Z,22.72
2022-08-09T20:51:30.692Z,22.69
2022-08-09T20:54:18.028Z,22.58
2022-08-09T20:56:54.158Z,22.56
2022-08-09T21:00:20.138Z,22.62
2022-08-09T21:02:21.779Z,22.44
2022-08-09T21:05:57.690Z,22.52
2022-08-09T21:07:50.075Z,22.47
2022-08-09T21:10:23.241Z,22.44
2022-08-09T21:13:03.157Z,22.37
2022-08-09T21:15:37.293Z,22.33
2022-08-09T21:18:27.622Z,22.29
2022-08-09T21:21:00.418Z,22.14
2022-08-09T21:23:51.353Z,22.21
2022-08-09T21:26:24.566Z,22.17
2022-08-09T21:28:57.124Z,22.13
2022-08-09T21:31:48.039Z,22.11
2022-08-09T21:34:29.232Z,21.92
2022-08-09T21:37:04.164Z,22.03
2022-08-09T21:39:51.296Z,21.89
2022-08-09T21:42:28.372Z,21.96
2022-08-09T21:45:02.001Z,21.93
2022-08-09T21:47:36.529Z,21.89
2022-08-09T21:50:17.643Z,21.86
2022-08-09T21:52:55.956Z,21.82
2022-08-09T21:55:29.367Z,21.80
2022-08-09T21:58:07.363Z,21.76
2022-08-09T22:00:48.631Z,21.74
2022-08-09T22:03:26.151Z,21.69
2022-08-09T22:05:59.881Z,21.66
2022-08-09T22:08:32.708Z,21.63
2022-08-09T22:12:06.550Z,21.59
2022-08-09T22:14:00.954Z,21.56
2022-08-09T22:16:37.517Z,21.52
2022-08-09T22:19:57.676Z,21.46
2022-08-09T22:22:05.196Z,21.44
2022-08-09T22:24:37.407Z,21.40
2022-08-09T22:27:25.574Z,21.28
2022-08-09T22:29:58.065Z,21.31
2022-08-09T22:32:34.743Z,21.26
2022-08-09T22:36:03.121Z,21.22
2022-08-09T22:38:07.398Z,21.12
2022-08-09T22:40:40.297Z,21.16
2022-08-09T22:44:01.495Z,21.11
2022-08-09T22:48:11.470Z,21.06
2022-08-09T22:49:10.103Z,21.04
2022-08-09T22:51:49.887Z,21.00
2022-08-09T22:54:30.397Z,20.97
2022-08-09T22:57:04.560Z,20.95
2022-08-09T22:59:57.902Z,20.89
2022-08-09T23:02:30.460Z,20.85
2022-08-09T23:05:05.995Z,20.82
2022-08-09T23:08:23.174Z,20.78
2022-08-09T23:10:49.682Z,20.75
2022-08-09T23:13:22.286Z,20.73
2022-08-09T23:16:03.351Z,20.71
2022-08-09T23:18:36.750Z,20.68
2022-08-09T23:21:10.048Z,20.64
2022-08-09T23:23:43.932Z,20.65
2022-08-09T23:26:38.064Z,20.62
2022-08-09T23:29:15.679Z,20.60
2022-08-09T23:31:51.304Z,20.51
2022-08-09T23:34:27.054Z,20.58
2022-08-09T23:36:59.897Z,20.57
2022-08-09T23:39:32.334Z,20.54
2022-08-09T23:42:05.643Z,20.50
2022-08-09T23:44:38.195Z,20.47
2022-08-09T23:47:11.552Z,20.45
2022-08-09T23:49:43.794Z,20.43
2022-08-09T23:52:17.032Z,20.39
2022-08-09T23:54:50.581Z,20.38
2022-08-09T23:57:22.700Z,20.35
